Time;durP1;ratioP1;P1;durP2;ratioP2;P2;SDS_P1;SDS_P2;PMS_P1;PMS_P2;Temp;Humidity;BMP_temperature;BMP_pressure;BME280_temperature;BME280_humidity;BME280_pressure;Samples;Min_cycle;Max_cycle;Signal;HPM_P1;HPM_P2
2023/07/04 00:00:41;;;;;;;5.80;1.80;;;15.80;99.90;;;;;;5122587;27;21274;-71
2023/07/04 00:03:07;;;;;;;5.68;1.80;;;15.60;99.90;;;;;;5131840;27;20386;-71
2023/07/04 00:05:32;;;;;;;8.50;2.10;;;15.40;99.90;;;;;;5131775;27;20049;-71
2023/07/04 00:07:58;;;;;;;9.15;2.42;;;15.30;99.90;;;;;;5131660;27;20015;-71
2023/07/04 00:10:23;;;;;;;13.98;2.45;;;15.20;99.90;;;;;;5131790;27;20032;-71
2023/07/04 00:12:49;;;;;;;14.00;2.80;;;15.10;99.90;;;;;;5114434;27;20023;-71
2023/07/04 00:15:15;;;;;;;8.45;2.28;;;15.00;99.90;;;;;;5131556;27;20026;-71
2023/07/04 00:17:42;;;;;;;11.65;2.17;;;15.00;99.90;;;;;;5131362;27;20457;-71
2023/07/04 00:20:09;;;;;;;9.27;2.25;;;14.90;99.90;;;;;;5131940;27;20026;-71
2023/07/04 00:22:40;;;;;;;9.70;2.15;;;14.90;99.90;;;;;;5128196;27;20407;-71
2023/07/04 00:25:06;;;;;;;7.93;2.28;;;14.90;99.90;;;;;;5130951;27;20030;-71
2023/07/04 00:27:32;;;;;;;13.82;2.55;;;14.80;99.90;;;;;;5131558;27;20500;-71
2023/07/04 00:29:58;;;;;;;10.60;2.17;;;14.90;99.90;;;;;;5130094;27;20050;-71
2023/07/04 00:32:24;;;;;;;11.55;2.47;;;14.80;99.90;;;;;;5131369;27;20115;-71
2023/07/04 00:34:50;;;;;;;9.05;2.30;;;14.80;99.90;;;;;;5130919;27;20030;-71
2023/07/04 00:37:21;;;;;;;9.13;1.88;;;14.70;99.90;;;;;;5131199;27;20038;-71
2023/07/04 00:39:47;;;;;;;8.80;2.10;;;14.70;99.90;;;;;;5129894;27;20076;-71
2023/07/04 00:42:13;;;;;;;6.88;1.85;;;14.70;99.90;;;;;;5125366;27;20475;-71
2023/07/04 00:44:44;;;;;;;10.60;2.22;;;14.70;99.90;;;;;;5121230;27;20050;-71
2023/07/04 00:47:15;;;;;;;9.85;2.22;;;14.70;99.90;;;;;;5131338;27;20023;-71
2023/07/04 00:49:44;;;;;;;14.60;2.72;;;14.70;99.90;;;;;;5130574;27;20475;-71
2023/07/04 00:52:26;;;;;;;9.73;2.22;;;14.70;99.90;;;;;;5130112;27;20035;-71
2023/07/04 00:55:01;;;;;;;12.60;2.70;;;14.80;99.90;;;;;;5131029;27;20356;-71
2023/07/04 00:57:31;;;;;;;6.63;2.00;;;14.80;99.90;;;;;;5112663;28;20105;-71
2023/07/04 00:59:58;;;;;;;14.98;2.50;;;14.80;99.90;;;;;;5130976;28;20048;-71
2023/07/04 01:02:29;;;;;;;10.55;2.35;;;14.80;99.90;;;;;;5131132;28;20031;-71
2023/07/04 01:04:56;;;;;;;12.60;2.63;;;14.80;99.90;;;;;;5131167;28;20084;-71
2023/07/04 01:07:29;;;;;;;13.80;2.70;;;14.90;99.90;;;;;;5130990;28;20019;-71
2023/07/04 01:10:11;;;;;;;12.55;2.72;;;14.80;99.90;;;;;;5130656;28;20031;-71
2023/07/04 01:12:38;;;;;;;17.08;2.80;;;14.90;99.90;;;;;;5130919;28;20098;-71
2023/07/04 01:15:04;;;;;;;12.65;2.58;;;14.80;99.90;;;;;;5130758;28;20007;-71
2023/07/04 01:17:30;;;;;;;13.45;3.00;;;14.90;99.90;;;;;;5130793;28;20035;-71
2023/07/04 01:19:57;;;;;;;16.67;2.80;;;14.90;99.90;;;;;;5130845;28;20116;-71
2023/07/04 01:22:34;;;;;;;12.40;2.60;;;14.90;99.90;;;;;;5130911;28;20041;-71
2023/07/04 01:25:08;;;;;;;15.48;2.47;;;14.90;99.90;;;;;;5131048;28;20023;-71
2023/07/04 01:27:36;;;;;;;15.07;2.55;;;14.90;99.90;;;;;;5131065;28;20425;-71
2023/07/04 01:30:05;;;;;;;16.30;2.65;;;14.90;99.90;;;;;;5130575;28;20431;-71
2023/07/04 01:32:31;;;;;;;9.93;2.45;;;14.90;99.90;;;;;;5130728;28;20022;-71
2023/07/04 01:35:00;;;;;;;14.38;2.55;;;14.90;99.90;;;;;;5128842;27;20062;-71
2023/07/04 01:37:30;;;;;;;10.90;2.17;;;14.80;99.90;;;;;;5134676;27;20045;-71
2023/07/04 01:39:57;;;;;;;14.80;2.67;;;14.80;99.90;;;;;;5134736;27;20018;-71
2023/07/04 01:42:23;;;;;;;10.73;2.42;;;14.90;99.90;;;;;;5129388;27;20024;-71
2023/07/04 01:44:49;;;;;;;8.93;2.22;;;14.80;99.90;;;;;;5134538;27;20058;-71
2023/07/04 01:47:15;;;;;;;11.32;2.20;;;14.80;99.90;;;;;;5134303;27;20051;-71
2023/07/04 01:49:40;;;;;;;9.85;2.03;;;14.80;99.90;;;;;;5115898;27;20031;-71
2023/07/04 01:52:06;;;;;;;9.60;2.10;;;14.80;99.90;;;;;;5134153;27;20029;-71
2023/07/04 01:54:32;;;;;;;9.55;2.10;;;14.80;99.90;;;;;;5134413;27;20023;-71
2023/07/04 01:56:58;;;;;;;8.70;2.05;;;14.80;99.90;;;;;;5132898;27;20094;-71
2023/07/04 01:59:24;;;;;;;18.38;2.15;;;14.80;99.90;;;;;;5130906;27;20027;-71
2023/07/04 02:01:49;;;;;;;9.02;1.92;;;14.80;99.90;;;;;;5133087;27;20395;-71
2023/07/04 02:04:15;;;;;;;13.07;1.98;;;14.80;99.90;;;;;;5133340;27;20482;-71
2023/07/04 02:06:41;;;;;;;9.32;2.20;;;14.70;99.90;;;;;;5129852;27;20098;-71
2023/07/04 02:09:07;;;;;;;14.25;2.28;;;14.80;99.90;;;;;;5134270;27;20011;-71
2023/07/04 02:11:33;;;;;;;9.68;1.90;;;14.80;99.90;;;;;;5134249;27;20040;-71
2023/07/04 02:14:00;;;;;;;9.32;1.65;;;14.80;99.90;;;;;;5133867;27;20016;-71
2023/07/04 02:16:26;;;;;;;7.40;1.90;;;14.80;99.90;;;;;;5134209;27;20015;-71
2023/07/04 02:18:52;;;;;;;10.30;2.05;;;14.80;99.90;;;;;;5133744;27;20024;-71
2023/07/04 02:21:18;;;;;;;11.57;2.05;;;14.80;99.90;;;;;;5133534;27;20031;-71
2023/07/04 02:23:44;;;;;;;8.25;1.73;;;14.80;99.90;;;;;;5132687;27;20015;-71
2023/07/04 02:26:11;;;;;;;9.07;2.08;;;14.90;99.90;;;;;;5133003;27;20387;-71
2023/07/04 02:28:39;;;;;;;10.20;2.13;;;14.90;99.90;;;;;;5132565;27;20015;-71
2023/07/04 02:31:05;;;;;;;9.65;2.20;;;14.90;99.90;;;;;;5132574;27;20189;-71
2023/07/04 02:33:31;;;;;;;9.13;2.30;;;15.00;99.90;;;;;;5129005;27;20177;-71
2023/07/04 02:35:56;;;;;;;9.77;2.25;;;15.00;99.90;;;;;;5129688;27;20015;-71
2023/07/04 02:38:22;;;;;;;12.43;2.33;;;15.00;99.90;;;;;;5130691;27;20391;-71
2023/07/04 02:40:48;;;;;;;17.30;2.30;;;15.00;99.90;;;;;;5124564;27;20476;-71
2023/07/04 02:43:15;;;;;;;10.27;2.17;;;15.00;99.90;;;;;;5131230;27;20467;-71
2023/07/04 02:45:42;;;;;;;11.55;2.20;;;15.00;99.90;;;;;;5131832;27;20053;-71
2023/07/04 02:48:08;;;;;;;14.55;2.60;;;15.00;99.90;;;;;;5130661;27;20031;-71
2023/07/04 02:50:34;;;;;;;15.00;2.50;;;15.00;99.90;;;;;;5130894;27;20052;-71
2023/07/04 02:53:01;;;;;;;10.10;2.40;;;15.00;99.90;;;;;;5132776;27;20518;-71
2023/07/04 02:55:27;;;;;;;10.68;2.40;;;15.00;99.90;;;;;;5131980;27;20364;-71
2023/07/04 02:57:52;;;;;;;11.38;2.40;;;14.90;99.90;;;;;;5132067;27;20080;-71
2023/07/04 03:00:18;;;;;;;13.32;2.67;;;14.90;99.90;;;;;;5131683;27;20137;-71
2023/07/04 03:02:44;;;;;;;14.05;2.72;;;14.90;99.90;;;;;;5125026;27;20379;-71
2023/07/04 03:05:10;;;;;;;10.35;2.25;;;14.90;99.90;;;;;;5130908;27;20027;-71
2023/07/04 03:07:35;;;;;;;12.30;2.58;;;14.90;99.90;;;;;;5132252;27;20098;-71
2023/07/04 03:10:02;;;;;;;13.23;1.98;;;14.80;99.90;;;;;;5128817;27;20023;-71
2023/07/04 03:12:27;;;;;;;10.75;2.17;;;14.80;99.90;;;;;;5128811;27;20590;-71
2023/07/04 03:14:53;;;;;;;8.70;1.95;;;14.80;99.90;;;;;;5125263;27;20098;-71
2023/07/04 03:17:19;;;;;;;12.88;2.70;;;14.80;99.90;;;;;;5132736;27;20029;-71
2023/07/04 03:19:44;;;;;;;9.52;2.22;;;14.80;99.90;;;;;;5132944;27;20662;-71
2023/07/04 03:22:10;;;;;;;11.68;2.00;;;14.80;99.90;;;;;;5131379;27;20487;-71
2023/07/04 03:24:36;;;;;;;10.15;2.92;;;14.80;99.90;;;;;;5131826;27;20031;-71
2023/07/04 03:27:04;;;;;;;9.13;2.00;;;14.80;99.90;;;;;;5131337;27;20023;-71
2023/07/04 03:29:30;;;;;;;12.82;2.75;;;14.80;99.90;;;;;;5132675;27;20054;-71
2023/07/04 03:31:55;;;;;;;15.05;2.33;;;14.80;99.90;;;;;;5132411;27;20054;-71
2023/07/04 03:34:21;;;;;;;15.40;2.58;;;14.70;99.90;;;;;;5131115;27;20055;-71
2023/07/04 03:36:46;;;;;;;13.80;2.78;;;14.80;99.90;;;;;;5109607;27;20519;-71
2023/07/04 03:39:12;;;;;;;11.57;2.35;;;14.70;99.90;;;;;;5130557;27;20047;-72
2023/07/04 03:41:38;;;;;;;11.45;2.28;;;14.70;99.90;;;;;;5131814;27;20051;-71
2023/07/04 03:44:04;;;;;;;10.88;2.38;;;14.70;99.90;;;;;;5130934;27;20106;-71
2023/07/04 03:46:29;;;;;;;12.18;2.38;;;14.70;99.90;;;;;;5132291;27;20022;-71
2023/07/04 03:48:55;;;;;;;13.93;2.63;;;14.80;99.90;;;;;;5132182;27;20015;-71
2023/07/04 03:51:21;;;;;;;18.83;2.83;;;14.80;99.90;;;;;;5127356;27;20047;-71
2023/07/04 03:53:48;;;;;;;16.23;2.72;;;14.80;99.90;;;;;;5129067;27;20019;-71
2023/07/04 03:56:14;;;;;;;15.32;2.30;;;14.80;99.90;;;;;;5132113;27;20067;-71
2023/07/04 03:58:40;;;;;;;10.80;2.40;;;14.70;99.90;;;;;;5131377;27;20091;-71
2023/07/04 04:01:06;;;;;;;17.42;2.60;;;14.80;99.90;;;;;;5131935;27;20020;-71
2023/07/04 04:03:38;;;;;;;11.80;2.67;;;14.80;99.90;;;;;;5131396;27;20031;-71
2023/07/04 04:06:08;;;;;;;16.98;2.40;;;14.80;99.90;;;;;;5131152;27;20023;-71
2023/07/04 04:08:34;;;;;;;11.68;2.50;;;14.80;99.90;;;;;;5131856;27;20022;-71
2023/07/04 04:11:00;;;;;;;14.23;2.40;;;14.80;99.90;;;;;;5131727;27;20016;-71
2023/07/04 04:13:26;;;;;;;15.77;2.50;;;14.80;99.90;;;;;;5131599;27;20164;-71
2023/07/04 04:15:52;;;;;;;20.35;3.17;;;14.80;99.90;;;;;;5132259;27;20011;-71
2023/07/04 04:18:18;;;;;;;9.98;2.45;;;14.90;99.90;;;;;;5131457;27;20094;-71
2023/07/04 04:20:44;;;;;;;21.10;2.90;;;14.90;99.90;;;;;;5131590;27;20123;-71
2023/07/04 04:23:09;;;;;;;14.43;2.90;;;14.90;99.90;;;;;;5131509;27;20012;-71
2023/07/04 04:25:37;;;;;;;19.40;2.75;;;14.90;99.90;;;;;;5131853;27;20460;-71
2023/07/04 04:28:07;;;;;;;18.33;2.63;;;15.00;99.90;;;;;;5131533;27;20011;-71
2023/07/04 04:30:33;;;;;;;14.63;3.03;;;15.00;99.90;;;;;;5119981;27;20097;-71
2023/07/04 04:33:01;;;;;;;14.88;2.85;;;15.00;99.90;;;;;;5131143;27;20015;-71
2023/07/04 04:35:27;;;;;;;15.88;2.60;;;15.10;99.90;;;;;;5131729;27;20062;-70
2023/07/04 04:37:52;;;;;;;11.88;2.75;;;15.10;99.90;;;;;;5131212;27;20051;-71
2023/07/04 04:40:18;;;;;;;12.25;2.38;;;15.10;99.90;;;;;;5131162;27;20019;-71
2023/07/04 04:42:44;;;;;;;17.00;2.60;;;15.10;99.90;;;;;;5130389;27;20068;-71
2023/07/04 04:45:11;;;;;;;10.85;2.33;;;15.20;99.90;;;;;;5130927;27;20425;-70
2023/07/04 04:47:39;;;;;;;17.77;2.53;;;15.20;99.90;;;;;;5131041;27;20011;-70
2023/07/04 04:50:06;;;;;;;15.02;2.80;;;15.30;99.90;;;;;;5130733;27;20055;-70
2023/07/04 04:52:31;;;;;;;14.07;2.70;;;15.30;99.90;;;;;;5131055;27;20450;-70
2023/07/04 04:55:01;;;;;;;11.13;2.22;;;15.30;99.90;;;;;;5129180;27;20043;-70
2023/07/04 04:57:27;;;;;;;16.70;2.45;;;15.30;99.90;;;;;;5116579;28;20077;-70
2023/07/04 04:59:56;;;;;;;12.98;2.33;;;15.30;99.90;;;;;;5124385;28;20079;-70
2023/07/04 05:02:23;;;;;;;11.88;2.22;;;15.40;99.90;;;;;;5131206;28;20019;-70
2023/07/04 05:04:48;;;;;;;15.77;2.50;;;15.40;99.90;;;;;;5130451;28;20382;-70
2023/07/04 05:07:14;;;;;;;12.10;2.70;;;15.40;99.90;;;;;;5131094;28;20023;-70
2023/07/04 05:09:40;;;;;;;9.90;2.10;;;15.50;99.90;;;;;;5134010;27;20015;-70
2023/07/04 05:12:06;;;;;;;14.05;2.55;;;15.50;99.90;;;;;;5134840;27;20030;-70
2023/07/04 05:14:31;;;;;;;14.30;2.50;;;15.60;99.90;;;;;;5129931;27;20376;-70
2023/07/04 05:16:57;;;;;;;15.27;2.60;;;15.70;99.90;;;;;;5128361;27;20055;-70
2023/07/04 05:19:23;;;;;;;10.50;2.75;;;15.70;99.90;;;;;;5132904;27;20027;-70
2023/07/04 05:21:49;;;;;;;14.98;2.80;;;15.80;99.90;;;;;;5134179;27;20040;-70
2023/07/04 05:24:15;;;;;;;15.57;2.47;;;15.80;99.90;;;;;;5113650;27;20034;-70
2023/07/04 05:26:40;;;;;;;16.20;3.22;;;15.80;99.90;;;;;;5133466;27;20023;-70
2023/07/04 05:29:08;;;;;;;21.80;2.90;;;15.90;99.90;;;;;;5134007;27;20030;-71
2023/07/04 05:31:35;;;;;;;18.75;3.00;;;15.90;99.90;;;;;;5134138;27;20023;-71
2023/07/04 05:34:01;;;;;;;13.77;2.90;;;15.90;99.90;;;;;;5134827;27;20031;-70
2023/07/04 05:36:29;;;;;;;17.17;3.35;;;15.90;99.90;;;;;;5133167;27;20029;-70
2023/07/04 05:38:56;;;;;;;15.32;3.20;;;15.90;99.90;;;;;;5113942;27;20019;-70
2023/07/04 05:41:25;;;;;;;15.65;2.72;;;15.90;99.90;;;;;;5132998;27;20030;-71
2023/07/04 05:43:53;;;;;;;11.32;2.40;;;16.00;99.90;;;;;;5125089;27;20098;-71
2023/07/04 05:46:19;;;;;;;13.52;2.58;;;16.00;99.90;;;;;;5131522;27;20062;-70
2023/07/04 05:48:44;;;;;;;14.73;2.83;;;16.10;99.90;;;;;;5133236;27;20060;-70
2023/07/04 05:51:12;;;;;;;14.38;2.85;;;16.10;99.90;;;;;;5133817;27;20495;-71
2023/07/04 05:53:40;;;;;;;15.07;3.00;;;16.20;99.90;;;;;;5129718;27;20030;-71
2023/07/04 05:56:09;;;;;;;17.85;3.10;;;16.20;99.90;;;;;;5131474;27;20019;-69
2023/07/04 05:58:39;;;;;;;20.02;3.38;;;16.30;99.90;;;;;;5133947;27;20363;-69
2023/07/04 06:01:13;;;;;;;16.48;2.70;;;16.30;99.90;;;;;;5134391;27;20435;-69
2023/07/04 06:03:40;;;;;;;12.93;2.60;;;16.40;99.90;;;;;;5134202;27;20334;-69
2023/07/04 06:06:07;;;;;;;11.95;2.85;;;16.40;99.90;;;;;;5133835;27;20015;-69
2023/07/04 06:08:33;;;;;;;16.77;2.63;;;16.40;99.90;;;;;;5133933;27;20394;-69
2023/07/04 06:11:05;;;;;;;17.05;3.35;;;16.50;99.90;;;;;;5134221;27;20027;-70
2023/07/04 06:13:40;;;;;;;14.07;2.97;;;16.50;99.90;;;;;;5134649;27;20099;-75
2023/07/04 06:16:06;;;;;;;15.27;2.63;;;16.60;99.90;;;;;;5133968;27;20035;-70
2023/07/04 06:18:32;;;;;;;14.85;3.05;;;16.70;99.90;;;;;;5135238;27;20023;-70
2023/07/04 06:21:11;;;;;;;18.80;2.92;;;16.70;99.90;;;;;;5132617;27;20026;-69
2023/07/04 06:23:37;;;;;;;13.02;2.80;;;16.70;99.90;;;;;;5127908;27;20034;-69
2023/07/04 06:26:03;;;;;;;16.92;2.92;;;16.70;99.90;;;;;;5133628;27;20019;-69
2023/07/04 06:28:29;;;;;;;16.38;3.33;;;16.70;99.90;;;;;;5133590;27;20435;-70
2023/07/04 06:30:55;;;;;;;16.65;3.28;;;16.70;99.90;;;;;;5132718;27;20028;-70
2023/07/04 06:33:20;;;;;;;20.30;3.17;;;16.70;99.90;;;;;;5130993;27;20023;-70
2023/07/04 06:35:46;;;;;;;18.52;3.08;;;16.70;99.90;;;;;;5132184;27;20030;-70
2023/07/04 06:38:12;;;;;;;16.92;3.35;;;16.70;99.90;;;;;;5132361;27;20102;-70
2023/07/04 06:40:38;;;;;;;17.27;2.75;;;16.70;99.90;;;;;;5130952;27;20062;-70
2023/07/04 06:43:05;;;;;;;13.75;3.15;;;16.80;99.90;;;;;;5129178;27;20032;-70
2023/07/04 06:45:32;;;;;;;17.98;3.35;;;16.80;99.90;;;;;;5132157;27;20494;-70
2023/07/04 06:47:58;;;;;;;15.88;2.90;;;16.90;99.90;;;;;;5132287;27;20027;-70
2023/07/04 06:50:24;;;;;;;19.45;2.65;;;16.90;99.90;;;;;;5132217;27;20491;-70
2023/07/04 06:52:50;;;;;;;11.65;2.58;;;17.00;99.90;;;;;;5132902;27;20034;-70
2023/07/04 06:55:16;;;;;;;17.52;2.88;;;17.00;99.90;;;;;;5133433;27;20110;-70
2023/07/04 06:57:42;;;;;;;15.68;2.50;;;17.00;99.90;;;;;;5132968;27;20042;-70
2023/07/04 07:00:09;;;;;;;18.70;3.47;;;17.10;99.90;;;;;;5133358;27;20415;-70
2023/07/04 07:02:34;;;;;;;14.48;2.70;;;17.10;99.90;;;;;;5131304;27;20487;-70
2023/07/04 07:05:00;;;;;;;15.95;2.58;;;17.10;99.90;;;;;;5132229;27;20029;-70
2023/07/04 07:07:26;;;;;;;19.73;2.90;;;17.20;99.90;;;;;;5132070;27;20085;-70
2023/07/04 07:09:51;;;;;;;13.05;2.80;;;17.30;99.90;;;;;;5132714;27;20061;-70
2023/07/04 07:12:17;;;;;;;18.35;3.00;;;17.20;99.90;;;;;;5132392;27;20103;-70
2023/07/04 07:14:46;;;;;;;11.93;2.72;;;17.20;99.90;;;;;;5114241;27;20440;-70
2023/07/04 07:17:11;;;;;;;17.73;3.20;;;17.20;99.90;;;;;;5132505;27;20467;-70
2023/07/04 07:19:37;;;;;;;14.23;2.83;;;17.30;99.90;;;;;;5132370;27;20023;-70
2023/07/04 07:22:03;;;;;;;12.23;2.83;;;17.40;99.90;;;;;;5132684;27;20019;-70
2023/07/04 07:24:29;;;;;;;14.63;2.67;;;17.50;99.90;;;;;;5132706;27;20046;-70
2023/07/04 07:26:56;;;;;;;22.05;3.03;;;17.60;99.90;;;;;;5132439;27;20023;-70
2023/07/04 07:29:21;;;;;;;17.45;2.90;;;17.70;99.90;;;;;;5127067;27;20034;-70
2023/07/04 07:31:49;;;;;;;12.00;2.60;;;17.70;99.90;;;;;;5128561;27;20019;-70
2023/07/04 07:34:15;;;;;;;12.98;2.80;;;17.70;99.90;;;;;;5132639;27;20380;-70
2023/07/04 07:36:42;;;;;;;9.32;2.58;;;17.80;99.90;;;;;;5132185;27;20409;-70
2023/07/04 07:39:10;;;;;;;13.05;2.85;;;17.80;99.90;;;;;;5132712;27;20064;-70
2023/07/04 07:41:39;;;;;;;13.80;2.90;;;17.90;99.90;;;;;;5132647;27;20057;-70
2023/07/04 07:44:06;;;;;;;13.32;2.63;;;17.90;99.90;;;;;;5132172;27;20439;-70
2023/07/04 07:46:32;;;;;;;15.38;2.88;;;18.00;99.90;;;;;;5132038;27;20015;-70
2023/07/04 07:48:58;;;;;;;14.20;3.22;;;17.90;99.90;;;;;;5132097;27;20391;-70
2023/07/04 07:51:24;;;;;;;14.38;2.40;;;18.00;99.90;;;;;;5131801;27;20126;-70
2023/07/04 07:53:53;;;;;;;16.75;3.13;;;18.00;99.90;;;;;;5131900;27;20027;-70
2023/07/04 07:56:21;;;;;;;15.23;2.50;;;18.00;99.90;;;;;;5129107;27;20676;-70
2023/07/04 07:58:47;;;;;;;12.32;2.80;;;18.00;99.90;;;;;;5130700;27;20701;-70
2023/07/04 08:01:22;;;;;;;17.85;3.00;;;18.00;99.90;;;;;;5131094;27;20364;-70
2023/07/04 08:03:48;;;;;;;15.57;2.80;;;18.00;99.90;;;;;;5124774;27;20019;-70
2023/07/04 08:06:21;;;;;;;13.93;2.90;;;18.10;99.90;;;;;;5131997;27;20026;-70
2023/07/04 08:08:47;;;;;;;10.80;2.60;;;18.10;99.90;;;;;;5129846;27;20548;-70
2023/07/04 08:11:13;;;;;;;12.10;2.70;;;18.20;99.90;;;;;;5104091;27;20112;-71
2023/07/04 08:13:39;;;;;;;14.82;3.00;;;18.20;99.90;;;;;;5131208;27;20024;-70
2023/07/04 08:16:05;;;;;;;13.32;3.15;;;18.30;99.90;;;;;;5130731;27;20018;-70
2023/07/04 08:18:30;;;;;;;18.40;2.63;;;18.30;99.90;;;;;;5131404;27;20349;-70
2023/07/04 08:21:01;;;;;;;15.32;2.67;;;18.30;99.90;;;;;;5131338;27;20433;-70
2023/07/04 08:23:27;;;;;;;11.60;2.67;;;18.40;99.90;;;;;;5131222;27;20262;-70
2023/07/04 08:25:53;;;;;;;12.55;2.78;;;18.60;99.90;;;;;;5131330;27;20016;-70
2023/07/04 08:28:19;;;;;;;14.52;2.60;;;18.70;99.90;;;;;;5131412;27;20015;-70
2023/07/04 08:30:45;;;;;;;13.68;2.80;;;18.80;99.90;;;;;;5130938;27;20571;-70
2023/07/04 08:33:16;;;;;;;14.20;2.53;;;18.90;99.90;;;;;;5130495;27;20023;-70
2023/07/04 08:36:08;;;;;;;18.60;3.13;;;19.00;99.90;;;;;;5129631;27;20020;-70
2023/07/04 08:38:34;;;;;;;13.27;2.40;;;19.10;99.90;;;;;;5130920;27;20031;-70
2023/07/04 08:41:00;;;;;;;15.35;2.50;;;19.20;99.90;;;;;;5130791;27;20053;-70
2023/07/04 08:43:55;;;;;;;12.82;2.72;;;19.40;99.90;;;;;;5130315;27;20034;-70
2023/07/04 08:46:22;;;;;;;16.70;3.20;;;19.50;99.90;;;;;;5110334;27;20513;-70
2023/07/04 08:48:48;;;;;;;17.02;3.30;;;19.50;99.90;;;;;;5131247;27;20023;-70
2023/07/04 08:51:21;;;;;;;15.13;2.80;;;19.40;99.90;;;;;;5129112;27;20419;-70
2023/07/04 08:53:53;;;;;;;14.27;2.60;;;19.40;99.90;;;;;;5130294;27;20030;-70
2023/07/04 08:56:20;;;;;;;16.23;2.72;;;19.50;99.90;;;;;;5131223;27;20023;-70
2023/07/04 08:59:07;;;;;;;15.27;2.88;;;19.50;99.90;;;;;;5130629;28;20099;-70
2023/07/04 09:02:12;;;;;;;13.20;2.80;;;19.60;99.90;;;;;;5130545;28;20023;-70
2023/07/04 09:04:56;;;;;;;11.65;2.63;;;19.70;99.90;;;;;;5125281;28;20031;-70
2023/07/04 09:07:48;;;;;;;15.68;3.05;;;19.60;99.90;;;;;;5121999;28;20428;-70
2023/07/04 09:10:49;;;;;;;14.25;2.95;;;19.60;99.90;;;;;;5111056;28;20031;-70
2023/07/04 09:13:25;;;;;;;11.88;2.38;;;19.40;99.90;;;;;;5127637;28;20102;-70
2023/07/04 09:15:51;;;;;;;15.23;3.10;;;19.50;99.90;;;;;;5123481;28;20015;-70
2023/07/04 09:18:21;;;;;;;14.13;2.53;;;19.60;99.90;;;;;;5130699;28;20502;-70
2023/07/04 09:21:02;;;;;;;11.60;2.53;;;19.80;99.90;;;;;;5130141;28;20267;-70
2023/07/04 09:23:30;;;;;;;16.13;2.65;;;20.00;99.90;;;;;;5129590;28;20030;-70
2023/07/04 09:25:57;;;;;;;11.40;2.50;;;20.10;99.90;;;;;;5120474;28;20382;-70
2023/07/04 09:28:23;;;;;;;13.63;3.03;;;20.30;99.90;;;;;;5125929;28;20027;-71
2023/07/04 09:30:52;;;;;;;13.70;2.88;;;20.30;99.90;;;;;;5130272;28;20038;-70
2023/07/04 09:33:21;;;;;;;13.63;2.92;;;20.20;99.90;;;;;;5130394;28;20042;-70
2023/07/04 09:35:47;;;;;;;11.75;2.35;;;20.10;99.90;;;;;;5111495;28;20057;-70
2023/07/04 09:38:13;;;;;;;11.75;2.55;;;20.00;99.90;;;;;;5130502;28;20494;-70
2023/07/04 09:40:40;;;;;;;16.98;2.58;;;19.80;99.90;;;;;;5130581;28;20023;-70
2023/07/04 09:43:07;;;;;;;10.35;2.50;;;19.70;99.90;;;;;;5130492;28;20034;-70
2023/07/04 09:45:33;;;;;;;16.55;3.00;;;19.50;99.90;;;;;;5125851;28;20027;-70
2023/07/04 09:47:59;;;;;;;14.63;2.70;;;19.50;99.90;;;;;;5130334;28;20026;-70
2023/07/04 09:50:31;;;;;;;11.15;2.17;;;19.40;99.90;;;;;;5129941;28;20039;-71
2023/07/04 09:53:18;;;;;;;16.02;2.72;;;19.40;99.90;;;;;;5130131;28;20135;-70
2023/07/04 09:56:01;;;;;;;14.35;2.40;;;19.60;99.90;;;;;;5133311;27;20403;-70
2023/07/04 09:58:29;;;;;;;16.83;2.65;;;19.60;99.90;;;;;;5120987;27;20486;-71
2023/07/04 10:01:15;;;;;;;18.05;2.70;;;19.60;99.90;;;;;;5134705;27;20030;-70
2023/07/04 10:03:42;;;;;;;14.52;2.55;;;19.70;99.90;;;;;;5119391;27;20012;-70
2023/07/04 10:06:09;;;;;;;17.08;2.63;;;19.80;99.90;;;;;;5131366;27;20094;-70
2023/07/04 10:08:53;;;;;;;15.35;2.50;;;19.80;99.90;;;;;;5133687;27;20011;-70
2023/07/04 10:11:28;;;;;;;12.75;2.83;;;19.90;99.90;;;;;;5133759;27;20027;-71
2023/07/04 10:14:08;;;;;;;15.02;2.58;;;19.90;99.90;;;;;;5133956;27;20124;-70
2023/07/04 10:16:34;;;;;;;13.48;2.42;;;19.90;99.90;;;;;;5131037;27;20027;-70
2023/07/04 10:19:15;;;;;;;14.25;2.83;;;19.90;99.90;;;;;;5133213;27;20047;-71
2023/07/04 10:21:45;;;;;;;11.65;2.50;;;20.00;99.90;;;;;;5130291;27;20019;-70
2023/07/04 10:24:18;;;;;;;13.75;2.20;;;20.10;99.90;;;;;;5133642;27;20079;-71
2023/07/04 10:26:48;;;;;;;11.80;2.47;;;20.10;99.90;;;;;;5133924;27;20031;-71
2023/07/04 10:29:16;;;;;;;16.02;2.78;;;20.10;99.90;;;;;;5132626;27;20031;-71
2023/07/04 10:31:42;;;;;;;14.20;2.30;;;20.20;99.50;;;;;;5133155;27;20027;-71
2023/07/04 10:34:13;;;;;;;11.88;2.35;;;20.20;98.90;;;;;;5133327;27;20020;-71
2023/07/04 10:36:40;;;;;;;9.35;2.20;;;20.30;98.80;;;;;;5133510;27;20034;-71
2023/07/04 10:39:11;;;;;;;10.27;2.40;;;20.50;98.00;;;;;;5133300;27;20098;-71
2023/07/04 10:41:46;;;;;;;9.55;2.38;;;20.60;97.80;;;;;;5133313;27;20421;-70
2023/07/04 10:44:22;;;;;;;6.47;2.30;;;20.70;97.30;;;;;;5133189;27;20024;-71
2023/07/04 10:46:55;;;;;;;18.85;2.53;;;20.80;97.00;;;;;;5133434;27;20161;-71
2023/07/04 10:49:24;;;;;;;10.38;2.55;;;21.00;97.00;;;;;;5129092;27;20026;-71
2023/07/04 10:51:57;;;;;;;8.32;2.08;;;21.00;97.40;;;;;;5133422;27;20095;-71
2023/07/04 10:54:23;;;;;;;6.07;1.73;;;21.20;97.40;;;;;;5133094;27;20107;-71
2023/07/04 10:56:55;;;;;;;6.75;2.13;;;21.30;96.60;;;;;;5132993;27;20106;-70
2023/07/04 10:59:33;;;;;;;8.20;2.08;;;21.30;95.70;;;;;;5133055;27;20550;-71
2023/07/04 11:02:29;;;;;;;12.00;2.42;;;21.40;95.90;;;;;;5132614;27;20046;-70
2023/07/04 11:04:58;;;;;;;;;;;21.50;96.20;;;;;;5132662;27;20062;-71
2023/07/04 11:07:26;;;;;;;7.55;2.00;;;21.60;95.70;;;;;;5132407;27;20002;-71
2023/07/04 11:09:57;;;;;;;14.63;2.25;;;21.60;95.90;;;;;;5132464;27;20094;-70
2023/07/04 11:12:29;;;;;;;7.35;1.95;;;21.60;95.50;;;;;;5132533;27;20054;-71
2023/07/04 11:15:05;;;;;;;12.65;2.10;;;21.60;94.30;;;;;;5132820;27;20050;-71
2023/07/04 11:17:36;;;;;;;12.07;2.20;;;21.50;94.90;;;;;;5132608;27;20038;-71
2023/07/04 11:20:13;;;;;;;8.00;1.92;;;21.60;94.70;;;;;;5126017;27;20026;-71
2023/07/04 11:22:51;;;;;;;9.98;2.28;;;21.50;94.00;;;;;;5127129;27;20023;-70
2023/07/04 11:25:52;;;;;;;14.00;2.30;;;21.60;93.90;;;;;;5132499;27;20023;-71
2023/07/04 11:28:43;;;;;;;7.50;1.88;;;21.70;93.90;;;;;;5130516;27;20045;-70
2023/07/04 11:31:23;;;;;;;8.60;2.30;;;21.80;93.60;;;;;;5129950;27;20114;-70
2023/07/04 11:33:56;;;;;;;6.65;1.90;;;21.70;93.20;;;;;;5131564;27;20035;-70
2023/07/04 11:36:24;;;;;;;8.60;1.75;;;21.70;92.60;;;;;;5113333;27;20031;-70
2023/07/04 11:39:03;;;;;;;9.32;2.05;;;21.80;92.00;;;;;;5132083;27;20536;-71
2023/07/04 11:41:40;;;;;;;7.82;1.98;;;21.90;91.00;;;;;;5128988;27;20019;-71
2023/07/04 11:44:23;;;;;;;10.82;1.67;;;21.90;91.50;;;;;;5131708;27;20011;-70
2023/07/04 11:47:05;;;;;;;6.93;1.90;;;21.90;91.30;;;;;;5132161;27;20338;-70
2023/07/04 11:49:32;;;;;;;7.82;2.03;;;22.10;90.70;;;;;;5132013;27;20593;-70
2023/07/04 11:52:27;;;;;;;6.63;1.95;;;22.00;90.30;;;;;;5130867;27;20446;-70
2023/07/04 11:55:04;;;;;;;7.13;2.07;;;22.00;90.30;;;;;;5131299;27;20027;-71
2023/07/04 11:58:01;;;;;;;8.75;2.30;;;22.10;90.10;;;;;;5131814;27;20068;-70
2023/07/04 12:00:30;;;;;;;8.65;1.80;;;22.10;89.90;;;;;;5132045;27;20114;-70
2023/07/04 12:02:56;;;;;;;6.03;1.88;;;22.20;90.40;;;;;;5113089;27;20019;-70
2023/07/04 12:05:32;;;;;;;5.70;1.88;;;22.20;90.20;;;;;;5132001;27;20019;-70
2023/07/04 12:08:06;;;;;;;8.80;2.15;;;22.30;90.90;;;;;;5131607;27;20055;-70
2023/07/04 12:10:32;;;;;;;8.13;2.05;;;22.40;90.70;;;;;;5130233;27;20019;-70
2023/07/04 12:13:01;;;;;;;6.97;1.80;;;22.40;89.50;;;;;;5131682;27;20026;-70
2023/07/04 12:15:33;;;;;;;8.30;2.10;;;22.30;90.00;;;;;;5131601;27;20439;-70
2023/07/04 12:18:00;;;;;;;9.35;2.22;;;22.30;90.30;;;;;;5130670;27;20019;-70
2023/07/04 12:20:28;;;;;;;10.25;2.10;;;22.40;90.60;;;;;;5131519;27;20042;-70
2023/07/04 12:23:01;;;;;;;7.95;2.08;;;22.60;90.60;;;;;;5131461;27;20027;-70
2023/07/04 12:25:42;;;;;;;9.85;2.60;;;22.60;90.10;;;;;;5131545;27;20031;-70
2023/07/04 12:28:12;;;;;;;10.48;2.25;;;22.50;90.00;;;;;;5131168;27;20410;-70
2023/07/04 12:30:39;;;;;;;6.57;2.22;;;22.50;90.80;;;;;;5131168;27;20079;-71
2023/07/04 12:33:17;;;;;;;10.93;2.42;;;22.60;90.90;;;;;;5131591;27;20019;-70
2023/07/04 12:35:51;;;;;;;7.07;1.90;;;22.80;90.70;;;;;;5129678;27;20514;-70
2023/07/04 12:38:17;;;;;;;6.05;1.80;;;23.00;90.20;;;;;;5131900;27;20028;-70
2023/07/04 12:40:45;;;;;;;10.05;2.03;;;23.10;87.90;;;;;;5131017;27;20467;-70
2023/07/04 12:43:12;;;;;;;5.85;1.88;;;23.10;88.10;;;;;;5131500;27;20094;-71
2023/07/04 12:45:39;;;;;;;9.52;2.28;;;23.00;86.80;;;;;;5112048;27;20019;-70
2023/07/04 12:48:07;;;;;;;8.30;2.10;;;23.00;86.90;;;;;;5131270;27;20018;-70
2023/07/04 12:50:34;;;;;;;7.32;2.13;;;23.00;87.60;;;;;;5130754;27;20051;-70